CheckWX is a tool to help pilots better visualize weather data.  It is not intended as a substitute for an official pre-flight weather briefing.

01:06:02 UTC

CYQI METAR
Yarmouth Airport
Yarmouth, Canada
Current

1 hour ago

CYQI 240000Z 33005KT 15SM SKC M03/M08 A3037 RMK SLP287
Observed
Feb-24 @ 00:00 UTC
Wind
  • 330° at 5 KTS
Visibility
15 SM
Flight Rules
VFR
Cloud Levels
  • Clear skies
Temperature
-3°C / 27°F
Dewpoint
-8°C / 18°F
Humidity
69%
Altimeter
30.37" Hg
Pressure
1028.7 hPa
Previous

2 hours ago

CYQI 232300Z 36007KT 15SM BKN032 OVC210 M03/M07 A3036 RMK SC6CS2 SLP284
Observed
Feb-23 @ 23:00 UTC
Wind
  • 360° at 7 KTS
Visibility
15 SM
Flight Rules
VFR
Cloud Levels
  • Broken at 3,200' AGL
  • Overcast at 21,000' AGL
Temperature
-3°C / 27°F
Dewpoint
-7°C / 19°F
Humidity
74%
Altimeter
30.36" Hg
Pressure
1028.4 hPa
Previous

3 hours ago

CYQI 232200Z 31010KT 15SM BKN032 OVC210 M01/M07 A3034 RMK SC6CS2 SLP278
Observed
Feb-23 @ 22:00 UTC
Wind
  • 310° at 10 KTS
Visibility
15 SM
Flight Rules
VFR
Cloud Levels
  • Broken at 3,200' AGL
  • Overcast at 21,000' AGL
Temperature
-1°C / 30°F
Dewpoint
-7°C / 19°F
Humidity
64%
Altimeter
30.34" Hg
Pressure
1027.8 hPa